sensor_id;sensor_type;location;lat;lon;timestamp;pressure;altitude;pressure_sealevel;temperature;humidity
6034;BME280;3045;43.226;27.858;2023-03-23T00:00:57;-11686.47;;;8.91;100.00
6034;BME280;3045;43.226;27.858;2023-03-23T00:03:24;-11686.75;;;8.93;100.00
6034;BME280;3045;43.226;27.858;2023-03-23T00:05:54;-11368.44;;;8.87;100.00
6034;BME280;3045;43.226;27.858;2023-03-23T00:08:25;-11367.50;;;8.80;100.00
6034;BME280;3045;43.226;27.858;2023-03-23T00:10:54;-11368.44;;;8.87;100.00
6034;BME280;3045;43.226;27.858;2023-03-23T00:13:22;-11368.53;;;8.88;100.00
6034;BME280;3045;43.226;27.858;2023-03-23T00:15:49;-11051.22;;;8.90;100.00
6034;BME280;3045;43.226;27.858;2023-03-23T00:18:17;-11051.53;;;8.92;100.00
6034;BME280;3045;43.226;27.858;2023-03-23T00:20:48;-11052.13;;;8.97;100.00
6034;BME280;3045;43.226;27.858;2023-03-23T00:23:16;-11370.13;;;9.00;100.00
6034;BME280;3045;43.226;27.858;2023-03-23T00:25:49;-11051.88;;;8.95;100.00
6034;BME280;3045;43.226;27.858;2023-03-23T00:28:20;-11368.25;;;8.86;100.00
6034;BME280;3045;43.226;27.858;2023-03-23T00:30:55;-11370.94;;;9.06;100.00
6034;BME280;3045;43.226;27.858;2023-03-23T00:33:22;-11370.59;;;9.03;100.00
6034;BME280;3045;43.226;27.858;2023-03-23T00:35:49;-11688.81;;;9.08;100.00
6034;BME280;3045;43.226;27.858;2023-03-23T00:38:18;-11688.47;;;9.05;100.00
6034;BME280;3045;43.226;27.858;2023-03-23T00:40:45;-11688.81;;;9.08;100.00
6034;BME280;3045;43.226;27.858;2023-03-23T00:43:12;-12006.72;;;9.10;100.00
6034;BME280;3045;43.226;27.858;2023-03-23T00:45:40;-12005.19;;;8.99;100.00
6034;BME280;3045;43.226;27.858;2023-03-23T00:48:07;-12004.84;;;8.97;100.00
6034;BME280;3045;43.226;27.858;2023-03-23T00:50:34;-12005.56;;;9.02;100.00
6034;BME280;3045;43.226;27.858;2023-03-23T00:53:01;-12006.28;;;9.07;100.00
6034;BME280;3045;43.226;27.858;2023-03-23T00:55:28;-11688.28;;;9.04;100.00
6034;BME280;3045;43.226;27.858;2023-03-23T00:57:56;-11688.34;;;9.04;100.00
6034;BME280;3045;43.226;27.858;2023-03-23T01:00:23;-11686.59;;;8.92;100.00
6034;BME280;3045;43.226;27.858;2023-03-23T01:02:52;-11370.94;;;9.06;100.00
6034;BME280;3045;43.226;27.858;2023-03-23T01:05:19;-11052.00;;;8.96;100.00
6034;BME280;3045;43.226;27.858;2023-03-23T01:07:47;-11051.16;;;8.89;100.00
6034;BME280;3045;43.226;27.858;2023-03-23T01:10:14;-11370.06;;;8.99;100.00
6034;BME280;3045;43.226;27.858;2023-03-23T01:12:44;-11053.03;;;9.04;100.00
6034;BME280;3045;43.226;27.858;2023-03-23T01:15:15;-11054.81;;;9.18;100.00
6034;BME280;3045;43.226;27.858;2023-03-23T01:17:43;-11055.19;;;9.21;100.00
6034;BME280;3045;43.226;27.858;2023-03-23T01:20:13;-11055.28;;;9.22;100.00
6034;BME280;3045;43.226;27.858;2023-03-23T01:22:41;-11053.84;;;9.10;100.00
6034;BME280;3045;43.226;27.858;2023-03-23T01:25:09;-11371.53;;;9.10;100.00
6034;BME280;3045;43.226;27.858;2023-03-23T01:27:36;-11370.94;;;9.06;100.00
6034;BME280;3045;43.226;27.858;2023-03-23T01:30:05;-11690.50;;;9.20;100.00
6034;BME280;3045;43.226;27.858;2023-03-23T01:32:32;-11689.53;;;9.13;100.00
6034;BME280;3045;43.226;27.858;2023-03-23T01:34:59;-11688.47;;;9.05;100.00
6034;BME280;3045;43.226;27.858;2023-03-23T01:37:27;-11688.06;;;9.02;100.00
6034;BME280;3045;43.226;27.858;2023-03-23T01:39:55;-11686.59;;;8.92;100.00
6034;BME280;3045;43.226;27.858;2023-03-23T01:42:23;-11687.56;;;8.99;100.00
6034;BME280;3045;43.226;27.858;2023-03-23T01:45:21;-11371.00;;;9.06;100.00
6034;BME280;3045;43.226;27.858;2023-03-23T01:47:50;-11052.50;;;9.00;100.00
6034;BME280;3045;43.226;27.858;2023-03-23T01:50:18;-11053.03;;;9.04;100.00
6034;BME280;3045;43.226;27.858;2023-03-23T01:52:50;-11053.09;;;9.04;100.00
6034;BME280;3045;43.226;27.858;2023-03-23T01:55:18;-11053.03;;;9.04;100.00
6034;BME280;3045;43.226;27.858;2023-03-23T01:57:47;-11052.44;;;8.99;100.00
6034;BME280;3045;43.226;27.858;2023-03-23T02:00:15;-10733.81;;;8.91;100.00
6034;BME280;3045;43.226;27.858;2023-03-23T02:02:43;-11049.03;;;8.73;100.00
6034;BME280;3045;43.226;27.858;2023-03-23T02:05:18;-11051.16;;;8.89;100.00
6034;BME280;3045;43.226;27.858;2023-03-23T02:07:50;-11052.25;;;8.98;100.00
6034;BME280;3045;43.226;27.858;2023-03-23T02:10:17;-11054.81;;;9.18;100.00
6034;BME280;3045;43.226;27.858;2023-03-23T02:12:44;-10735.16;;;9.02;100.00
6034;BME280;3045;43.226;27.858;2023-03-23T02:15:11;-10736.41;;;9.12;100.00
6034;BME280;3045;43.226;27.858;2023-03-23T02:17:43;-10736.28;;;9.11;100.00
6034;BME280;3045;43.226;27.858;2023-03-23T02:20:33;-10735.97;;;9.09;100.00
6034;BME280;3045;43.226;27.858;2023-03-23T02:23:35;-10736.34;;;9.12;100.00
6034;BME280;3045;43.226;27.858;2023-03-23T02:26:18;-11054.88;;;9.18;100.00
6034;BME280;3045;43.226;27.858;2023-03-23T02:29:06;-11054.69;;;9.17;100.00
6034;BME280;3045;43.226;27.858;2023-03-23T02:31:45;-11054.09;;;9.12;100.00
6034;BME280;3045;43.226;27.858;2023-03-23T02:34:25;-10734.19;;;8.94;100.00
6034;BME280;3045;43.226;27.858;2023-03-23T02:37:00;-10736.16;;;9.10;100.00
6034;BME280;3045;43.226;27.858;2023-03-23T02:39:32;-11052.75;;;9.02;100.00
6034;BME280;3045;43.226;27.858;2023-03-23T02:42:04;-10737.56;;;9.22;100.00
6034;BME280;3045;43.226;27.858;2023-03-23T02:44:33;-10737.81;;;9.24;100.00
6034;BME280;3045;43.226;27.858;2023-03-23T02:47:02;-10736.59;;;9.14;100.00
6034;BME280;3045;43.226;27.858;2023-03-23T02:49:34;-11053.09;;;9.04;100.00
6034;BME280;3045;43.226;27.858;2023-03-23T02:52:05;-11054.44;;;9.15;100.00
6034;BME280;3045;43.226;27.858;2023-03-23T02:54:34;-11051.22;;;8.90;100.00
6034;BME280;3045;43.226;27.858;2023-03-23T02:57:02;-11048.59;;;8.69;100.00
6034;BME280;3045;43.226;27.858;2023-03-23T02:59:29;-11053.03;;;9.04;100.00
6034;BME280;3045;43.226;27.858;2023-03-23T03:02:09;-11053.91;;;9.11;100.00
6034;BME280;3045;43.226;27.858;2023-03-23T03:04:40;-11054.94;;;9.19;100.00
6034;BME280;3045;43.226;27.858;2023-03-23T03:07:23;-11055.78;;;9.26;100.00
6034;BME280;3045;43.226;27.858;2023-03-23T03:09:56;-11053.66;;;9.09;100.00
6034;BME280;3045;43.226;27.858;2023-03-23T03:12:33;-11053.41;;;9.07;100.00
6034;BME280;3045;43.226;27.858;2023-03-23T03:15:10;-11057.25;;;9.37;100.00
6034;BME280;3045;43.226;27.858;2023-03-23T03:17:42;-11056.75;;;9.33;100.00
6034;BME280;3045;43.226;27.858;2023-03-23T03:20:12;-11691.06;;;9.24;100.00
6034;BME280;3045;43.226;27.858;2023-03-23T03:22:43;-11689.59;;;9.13;100.00
6034;BME280;3045;43.226;27.858;2023-03-23T03:25:12;-12009.66;;;9.31;100.00
6034;BME280;3045;43.226;27.858;2023-03-23T03:27:44;-12008.72;;;9.24;100.00
6034;BME280;3045;43.226;27.858;2023-03-23T03:30:17;-12009.59;;;9.30;100.00
6034;BME280;3045;43.226;27.858;2023-03-23T03:32:49;-12008.16;;;9.20;100.00
6034;BME280;3045;43.226;27.858;2023-03-23T03:35:20;-12007.00;;;9.12;100.00
6034;BME280;3045;43.226;27.858;2023-03-23T03:37:48;-12007.72;;;9.17;100.00
6034;BME280;3045;43.226;27.858;2023-03-23T03:40:18;-12006.56;;;9.09;100.00
6034;BME280;3045;43.226;27.858;2023-03-23T03:42:45;-11687.03;;;8.95;100.00
6034;BME280;3045;43.226;27.858;2023-03-23T03:45:14;-11368.78;;;8.90;100.00
6034;BME280;3045;43.226;27.858;2023-03-23T03:47:42;-11366.38;;;8.71;100.00
6034;BME280;3045;43.226;27.858;2023-03-23T03:50:09;-11050.44;;;8.84;100.00
6034;BME280;3045;43.226;27.858;2023-03-23T03:52:38;-11051.66;;;8.93;100.00
6034;BME280;3045;43.226;27.858;2023-03-23T03:55:07;-10734.47;;;8.97;100.00
6034;BME280;3045;43.226;27.858;2023-03-23T03:57:36;-10415.09;;;8.82;100.00
6034;BME280;3045;43.226;27.858;2023-03-23T04:00:05;-10098.66;;;8.93;100.00
6034;BME280;3045;43.226;27.858;2023-03-23T04:02:40;-9779.81;;;8.82;100.00
6034;BME280;3045;43.226;27.858;2023-03-23T04:05:08;-9781.13;;;8.94;100.00
6034;BME280;3045;43.226;27.858;2023-03-23T04:07:36;-9781.38;;;8.97;100.00
6034;BME280;3045;43.226;27.858;2023-03-23T04:10:07;-9461.69;;;8.78;100.00
6034;BME280;3045;43.226;27.858;2023-03-23T04:12:35;-9463.53;;;8.96;100.00
6034;BME280;3045;43.226;27.858;2023-03-23T04:15:02;-9461.88;;;8.80;100.00
6034;BME280;3045;43.226;27.858;2023-03-23T04:17:29;-9144.31;;;8.81;100.00
6034;BME280;3045;43.226;27.858;2023-03-23T04:19:56;-9144.38;;;8.82;100.00
6034;BME280;3045;43.226;27.858;2023-03-23T04:22:25;-9143.59;;;8.74;100.00
6034;BME280;3045;43.226;27.858;2023-03-23T04:24:56;-9460.13;;;8.62;100.00
6034;BME280;3045;43.226;27.858;2023-03-23T04:27:28;-9464.16;;;9.02;100.00
6034;BME280;3045;43.226;27.858;2023-03-23T04:29:55;-9463.00;;;8.91;100.00
6034;BME280;3045;43.226;27.858;2023-03-23T04:32:23;-9465.16;;;9.12;100.00
6034;BME280;3045;43.226;27.858;2023-03-23T04:34:55;-9146.97;;;9.08;100.00
6034;BME280;3045;43.226;27.858;2023-03-23T04:37:23;-9465.47;;;9.15;100.00
6034;BME280;3045;43.226;27.858;2023-03-23T04:39:55;-9783.38;;;9.15;100.00
6034;BME280;3045;43.226;27.858;2023-03-23T04:42:27;-9464.16;;;9.02;100.00
6034;BME280;3045;43.226;27.858;2023-03-23T04:44:55;-9782.34;;;9.06;100.00
6034;BME280;3045;43.226;27.858;2023-03-23T04:47:23;-9781.50;;;8.98;100.00
6034;BME280;3045;43.226;27.858;2023-03-23T04:49:50;-10418.41;;;9.10;100.00
6034;BME280;3045;43.226;27.858;2023-03-23T04:52:17;-10419.47;;;9.20;100.00
6034;BME280;3045;43.226;27.858;2023-03-23T04:54:46;-10420.13;;;9.25;100.00
6034;BME280;3045;43.226;27.858;2023-03-23T04:57:13;-10419.06;;;9.16;100.00
6034;BME280;3045;43.226;27.858;2023-03-23T04:59:42;-10737.44;;;9.21;100.00
6034;BME280;3045;43.226;27.858;2023-03-23T05:02:09;-10737.56;;;9.22;100.00
6034;BME280;3045;43.226;27.858;2023-03-23T05:04:38;-11055.91;;;9.27;100.00
6034;BME280;3045;43.226;27.858;2023-03-23T05:07:06;-11054.44;;;9.15;100.00
6034;BME280;3045;43.226;27.858;2023-03-23T05:09:33;-11055.66;;;9.25;100.00
6034;BME280;3045;43.226;27.858;2023-03-23T05:12:04;-11055.91;;;9.27;100.00
6034;BME280;3045;43.226;27.858;2023-03-23T05:14:31;-11375.22;;;9.38;100.00
6034;BME280;3045;43.226;27.858;2023-03-23T05:16:59;-11690.69;;;9.22;100.00
6034;BME280;3045;43.226;27.858;2023-03-23T05:19:27;-11694.94;;;9.52;100.00
6034;BME280;3045;43.226;27.858;2023-03-23T05:21:56;-12013.84;;;9.60;100.00
6034;BME280;3045;43.226;27.858;2023-03-23T05:24:29;-12014.34;;;9.63;100.00
6034;BME280;3045;43.226;27.858;2023-03-23T05:26:58;-12333.31;;;9.71;100.00
6034;BME280;3045;43.226;27.858;2023-03-23T05:29:25;-12333.53;;;9.73;100.00
6034;BME280;3045;43.226;27.858;2023-03-23T05:31:55;-12652.94;;;9.83;100.00
6034;BME280;3045;43.226;27.858;2023-03-23T05:34:26;-12967.00;;;9.58;100.00
6034;BME280;3045;43.226;27.858;2023-03-23T05:36:54;-12970.13;;;9.78;100.00
6034;BME280;3045;43.226;27.858;2023-03-23T05:39:22;-13604.50;;;9.71;100.00
6034;BME280;3045;43.226;27.858;2023-03-23T05:41:49;-14240.28;;;9.73;100.00
6034;BME280;3045;43.226;27.858;2023-03-23T05:44:17;-14556.56;;;9.65;100.00
6034;BME280;3045;43.226;27.858;2023-03-23T05:46:44;-14875.81;;;9.74;100.00
6034;BME280;3045;43.226;27.858;2023-03-23T05:49:11;-14875.44;;;9.72;100.00
6034;BME280;3045;43.226;27.858;2023-03-23T05:51:40;-14874.47;;;9.67;100.00
6034;BME280;3045;43.226;27.858;2023-03-23T05:54:07;-15193.13;;;9.72;100.00
6034;BME280;3045;43.226;27.858;2023-03-23T05:56:35;-15194.91;;;9.81;100.00
6034;BME280;3045;43.226;27.858;2023-03-23T05:59:02;-15195.19;;;9.83;100.00
6034;BME280;3045;43.226;27.858;2023-03-23T06:01:29;-15194.00;;;9.77;100.00
6034;BME280;3045;43.226;27.858;2023-03-23T06:03:57;-15827.97;;;9.71;100.00
6034;BME280;3045;43.226;27.858;2023-03-23T06:06:25;-16781.75;;;9.77;100.00
6034;BME280;3045;43.226;27.858;2023-03-23T06:08:53;-17101.91;;;9.89;100.00
6034;BME280;3045;43.226;27.858;2023-03-23T06:11:22;-17421.59;;;9.98;100.00
6034;BME280;3045;43.226;27.858;2023-03-23T06:13:49;-18055.38;;;9.93;100.00
6034;BME280;3045;43.226;27.858;2023-03-23T06:16:16;-18053.97;;;9.80;100.00
6034;BME280;3045;43.226;27.858;2023-03-23T06:18:43;-18056.38;;;9.90;100.00
6034;BME280;3045;43.226;27.858;2023-03-23T06:21:10;-18058.56;;;9.99;100.00
6034;BME280;3045;43.226;27.858;2023-03-23T06:23:38;-18060.25;;;10.06;100.00
6034;BME280;3045;43.226;27.858;2023-03-23T06:26:07;-18060.34;;;10.14;100.00
6034;BME280;3045;43.226;27.858;2023-03-23T06:28:35;-18059.97;;;10.13;100.00
6034;BME280;3045;43.226;27.858;2023-03-23T06:31:04;-18059.53;;;10.03;100.00
6034;BME280;3045;43.226;27.858;2023-03-23T06:33:32;-18059.16;;;10.01;100.00
6034;BME280;3045;43.226;27.858;2023-03-23T06:35:59;-18059.03;;;10.01;100.00
6034;BME280;3045;43.226;27.858;2023-03-23T06:38:26;-18064.25;;;10.23;100.00
6034;BME280;3045;43.226;27.858;2023-03-23T06:40:54;-18062.81;;;10.17;100.00
6034;BME280;3045;43.226;27.858;2023-03-23T06:43:23;-18064.50;;;10.24;100.00
6034;BME280;3045;43.226;27.858;2023-03-23T06:45:51;-18066.53;;;10.32;100.00
6034;BME280;3045;43.226;27.858;2023-03-23T06:48:18;-18065.47;;;10.28;100.00
6034;BME280;3045;43.226;27.858;2023-03-23T06:50:46;-18065.81;;;10.29;100.00
6034;BME280;3045;43.226;27.858;2023-03-23T06:53:13;-18062.69;;;10.16;100.00
6034;BME280;3045;43.226;27.858;2023-03-23T06:55:42;-18059.78;;;10.04;100.00
6034;BME280;3045;43.226;27.858;2023-03-23T06:58:09;-18063.75;;;10.21;100.00
6034;BME280;3045;43.226;27.858;2023-03-23T07:00:38;-18061.59;;;10.12;100.00
6034;BME280;3045;43.226;27.858;2023-03-23T07:03:05;-18062.56;;;10.16;100.00
6034;BME280;3045;43.226;27.858;2023-03-23T07:05:33;-18054.34;;;9.81;100.00
6034;BME280;3045;43.226;27.858;2023-03-23T07:08:00;-18058.81;;;10.00;100.00
6034;BME280;3045;43.226;27.858;2023-03-23T07:10:27;-18062.56;;;10.16;100.00
6034;BME280;3045;43.226;27.858;2023-03-23T07:12:54;-18061.19;;;10.18;100.00
6034;BME280;3045;43.226;27.858;2023-03-23T07:15:21;-18065.09;;;10.26;100.00
6034;BME280;3045;43.226;27.858;2023-03-23T07:17:49;-18064.25;;;10.23;100.00
6034;BME280;3045;43.226;27.858;2023-03-23T07:20:16;-18065.94;;;10.30;100.00
6034;BME280;3045;43.226;27.858;2023-03-23T07:22:43;-18063.97;;;10.29;100.00
6034;BME280;3045;43.226;27.858;2023-03-23T07:25:10;-18061.91;;;10.21;100.00
6034;BME280;3045;43.226;27.858;2023-03-23T07:27:37;-17743.03;;;10.15;100.00
6034;BME280;3045;43.226;27.858;2023-03-23T07:30:05;-17422.19;;;10.01;100.00
6034;BME280;3045;43.226;27.858;2023-03-23T07:32:32;-17109.97;;;10.25;100.00
6034;BME280;3045;43.226;27.858;2023-03-23T07:35:01;-16789.81;;;10.14;100.00
6034;BME280;3045;43.226;27.858;2023-03-23T07:37:29;-16792.81;;;10.27;100.00
6034;BME280;3045;43.226;27.858;2023-03-23T07:39:57;-16795.25;;;10.38;100.00
6034;BME280;3045;43.226;27.858;2023-03-23T07:42:24;-17114.38;;;10.44;100.00
6034;BME280;3045;43.226;27.858;2023-03-23T07:44:51;-17115.72;;;10.50;100.00
6034;BME280;3045;43.226;27.858;2023-03-23T07:47:20;-18069.28;;;10.51;100.00
6034;BME280;3045;43.226;27.858;2023-03-23T07:49:47;-18067.50;;;10.36;100.00
6034;BME280;3045;43.226;27.858;2023-03-23T07:52:15;-18074.63;;;10.66;100.00
6034;BME280;3045;43.226;27.858;2023-03-23T07:54:43;-18078.16;;;10.81;100.00
6034;BME280;3045;43.226;27.858;2023-03-23T07:57:10;-18082.25;;;10.98;100.00
6034;BME280;3045;43.226;27.858;2023-03-23T07:59:37;-18081.75;;;10.96;100.00
6034;BME280;3045;43.226;27.858;2023-03-23T08:02:07;-18087.81;;;11.21;100.00
6034;BME280;3045;43.226;27.858;2023-03-23T08:04:34;-18085.22;;;11.18;100.00
6034;BME280;3045;43.226;27.858;2023-03-23T08:07:02;-14585.25;;;11.22;100.00
6034;BME280;3045;43.226;27.858;2023-03-23T08:09:31;-12354.97;;;11.18;100.00
6034;BME280;3045;43.226;27.858;2023-03-23T08:11:58;-12360.09;;;11.53;100.00
6034;BME280;3045;43.226;27.858;2023-03-23T08:14:25;-10448.69;;;11.70;100.00
6034;BME280;3045;43.226;27.858;2023-03-23T08:16:53;-3740.97;;;11.59;100.00
6034;BME280;3045;43.226;27.858;2023-03-23T08:19:20;-7255.16;;;11.53;100.00
6034;BME280;3045;43.226;27.858;2023-03-23T08:21:47;-10767.44;;;11.68;100.00
6034;BME280;3045;43.226;27.858;2023-03-23T08:24:15;-10763.47;;;11.35;100.00
6034;BME280;3045;43.226;27.858;2023-03-23T08:26:43;-9171.63;;;11.65;100.00
6034;BME280;3045;43.226;27.858;2023-03-23T08:29:10;-6297.09;;;11.53;100.00
6034;BME280;3045;43.226;27.858;2023-03-23T08:31:38;-3421.16;;;11.20;100.00
6034;BME280;3045;43.226;27.858;2023-03-23T08:34:05;2654.06;;;11.08;100.00
6034;BME280;3045;43.226;27.858;2023-03-23T08:36:32;2335.63;;;11.26;100.00
6034;BME280;3045;43.226;27.858;2023-03-23T08:39:00;5219.03;;;11.35;100.00
6034;BME280;3045;43.226;27.858;2023-03-23T08:41:27;8108.78;;;11.60;100.00
6034;BME280;3045;43.226;27.858;2023-03-23T08:43:55;14856.00;;;11.69;100.00
6034;BME280;3045;43.226;27.858;2023-03-23T08:46:23;16466.38;;;11.76;100.00
6034;BME280;3045;43.226;27.858;2023-03-23T08:48:49;20638.56;;;11.42;100.00
6034;BME280;3045;43.226;27.858;2023-03-23T08:51:17;18377.09;;;11.18;100.00
6034;BME280;3045;43.226;27.858;2023-03-23T08:53:43;15175.47;;;11.62;100.00
6034;BME280;3045;43.226;27.858;2023-03-23T08:56:11;15817.22;;;11.58;100.00
6034;BME280;3045;43.226;27.858;2023-03-23T08:58:39;21624.28;;;11.92;100.00
6034;BME280;3045;43.226;27.858;2023-03-23T09:01:08;32914.50;;;11.74;100.00
6034;BME280;3045;43.226;27.858;2023-03-23T09:03:36;26131.88;;;11.75;100.00
6034;BME280;3045;43.226;27.858;2023-03-23T09:06:06;20012.13;;;11.89;100.00
6034;BME280;3045;43.226;27.858;2023-03-23T09:08:34;24532.06;;;12.04;100.00
6034;BME280;3045;43.226;27.858;2023-03-23T09:11:04;32613.75;;;12.13;100.00
6034;BME280;3045;43.226;27.858;2023-03-23T09:13:32;36832.97;;;12.30;100.00
6034;BME280;3045;43.226;27.858;2023-03-23T09:15:59;41063.84;;;12.53;100.00
6034;BME280;3045;43.226;27.858;2023-03-23T09:18:28;61589.91;;;12.71;100.00
6034;BME280;3045;43.226;27.858;2023-03-23T09:20:55;77311.66;;;12.78;100.00
6034;BME280;3045;43.226;27.858;2023-03-23T09:23:23;83571.16;;;12.92;100.00
6034;BME280;3045;43.226;27.858;2023-03-23T09:25:50;90147.38;;;12.88;100.00
6034;BME280;3045;43.226;27.858;2023-03-23T09:28:17;93064.09;;;12.57;100.00
6034;BME280;3045;43.226;27.858;2023-03-23T09:30:45;84502.81;;;12.54;100.00
6034;BME280;3045;43.226;27.858;2023-03-23T09:33:13;72648.50;;;12.20;100.00
6034;BME280;3045;43.226;27.858;2023-03-23T09:35:42;63512.75;;;12.37;100.00
6034;BME280;3045;43.226;27.858;2023-03-23T09:38:10;67777.47;;;12.51;100.00
6034;BME280;3045;43.226;27.858;2023-03-23T09:40:42;85148.63;;;12.46;100.00
6034;BME280;3045;43.226;27.858;2023-03-23T09:43:38;81842.09;;;12.30;100.00
6034;BME280;3045;43.226;27.858;2023-03-23T09:46:21;76968.38;;;12.67;100.00
6034;BME280;3045;43.226;27.858;2023-03-23T09:48:51;85505.09;;;12.65;100.00
6034;BME280;3045;43.226;27.858;2023-03-23T09:51:39;70747.97;;;12.72;100.00
6034;BME280;3045;43.226;27.858;2023-03-23T09:54:12;98014.63;;;12.59;100.00
6034;BME280;3045;43.226;27.858;2023-03-23T09:56:41;119508.81;;;12.48;100.00
6034;BME280;3045;43.226;27.858;2023-03-23T09:59:14;120822.63;;;12.41;100.00
6034;BME280;3045;43.226;27.858;2023-03-23T10:01:45;131792.31;;;12.39;100.00
6034;BME280;3045;43.226;27.858;2023-03-23T10:04:19;132441.63;;;12.31;100.00
6034;BME280;3045;43.226;27.858;2023-03-23T10:06:50;126797.38;;;12.38;100.00
6034;BME280;3045;43.226;27.858;2023-03-23T10:09:19;126166.47;;;12.54;100.00
6034;BME280;3045;43.226;27.858;2023-03-23T10:11:54;120204.50;;;12.64;100.00
6034;BME280;3045;43.226;27.858;2023-03-23T10:14:34;123571.44;;;12.85;100.00
6034;BME280;3045;43.226;27.858;2023-03-23T10:17:12;114660.25;;;13.14;100.00
6034;BME280;3045;43.226;27.858;2023-03-23T10:19:46;119307.56;;;13.13;100.00
6034;BME280;3045;43.226;27.858;2023-03-23T10:22:16;117372.06;;;13.43;100.00
6034;BME280;3045;43.226;27.858;2023-03-23T10:24:50;141738.31;;;13.32;100.00
6034;BME280;3045;43.226;27.858;2023-03-23T10:27:26;149479.31;;;13.69;100.00
6034;BME280;3045;43.226;27.858;2023-03-23T10:30:02;149495.75;;;13.76;100.00
6034;BME280;3045;43.226;27.858;2023-03-23T10:32:42;149492.00;;;13.74;100.00
6034;BME280;3045;43.226;27.858;2023-03-23T10:35:13;149509.72;;;13.81;100.00
6034;BME280;3045;43.226;27.858;2023-03-23T10:37:47;149514.81;;;13.83;100.00
6034;BME280;3045;43.226;27.858;2023-03-23T10:40:19;149493.25;;;13.75;100.00
6034;BME280;3045;43.226;27.858;2023-03-23T10:42:46;149451.41;;;13.58;100.00
6034;BME280;3045;43.226;27.858;2023-03-23T10:45:17;149390.59;;;13.34;100.00
6034;BME280;3045;43.226;27.858;2023-03-23T10:47:49;144026.31;;;13.44;100.00
6034;BME280;3045;43.226;27.858;2023-03-23T10:50:23;148303.84;;;13.34;100.00
6034;BME280;3045;43.226;27.858;2023-03-23T10:52:54;149415.97;;;13.44;100.00
6034;BME280;3045;43.226;27.858;2023-03-23T10:55:25;149410.88;;;13.42;100.00
6034;BME280;3045;43.226;27.858;2023-03-23T10:58:03;149464.09;;;13.63;100.00
6034;BME280;3045;43.226;27.858;2023-03-23T11:00:31;149541.41;;;13.94;100.00
6034;BME280;3045;43.226;27.858;2023-03-23T11:03:00;149564.22;;;14.03;100.00
6034;BME280;3045;43.226;27.858;2023-03-23T11:05:34;149514.81;;;13.83;100.00
6034;BME280;3045;43.226;27.858;2023-03-23T11:08:03;149568.03;;;14.04;100.00
6034;BME280;3045;43.226;27.858;2023-03-23T11:10:37;149527.44;;;13.88;100.00
6034;BME280;3045;43.226;27.858;2023-03-23T11:13:12;149557.84;;;14.00;100.00
6034;BME280;3045;43.226;27.858;2023-03-23T11:15:41;149526.16;;;13.88;100.00
6034;BME280;3045;43.226;27.858;2023-03-23T11:18:10;149509.72;;;13.81;100.00
6034;BME280;3045;43.226;27.858;2023-03-23T11:20:41;149526.16;;;13.88;100.00
6034;BME280;3045;43.226;27.858;2023-03-23T11:23:19;149504.63;;;13.79;100.00
6034;BME280;3045;43.226;27.858;2023-03-23T11:25:56;149505.88;;;13.80;100.00
6034;BME280;3045;43.226;27.858;2023-03-23T11:28:31;149476.75;;;13.68;100.00
6034;BME280;3045;43.226;27.858;2023-03-23T11:31:01;149465.34;;;13.63;100.00
6034;BME280;3045;43.226;27.858;2023-03-23T11:33:30;149488.16;;;13.72;100.00
6034;BME280;3045;43.226;27.858;2023-03-23T11:35:59;149466.63;;;13.64;100.00
6034;BME280;3045;43.226;27.858;2023-03-23T11:38:27;149436.22;;;13.52;100.00
6034;BME280;3045;43.226;27.858;2023-03-23T11:40:54;147310.06;;;13.47;100.00
6034;BME280;3045;43.226;27.858;2023-03-23T11:43:23;131982.59;;;13.24;100.00
6034;BME280;3045;43.226;27.858;2023-03-23T11:45:59;133308.06;;;13.20;100.00
6034;BME280;3045;43.226;27.858;2023-03-23T11:48:34;116002.78;;;13.22;100.00
6034;BME280;3045;43.226;27.858;2023-03-23T11:51:06;135971.50;;;13.17;100.00
6034;BME280;3045;43.226;27.858;2023-03-23T11:53:49;122614.47;;;13.05;100.00
6034;BME280;3045;43.226;27.858;2023-03-23T11:56:23;109022.91;;;13.14;100.00
6034;BME280;3045;43.226;27.858;2023-03-23T11:58:56;113315.63;;;13.05;100.00
6034;BME280;3045;43.226;27.858;2023-03-23T12:01:32;109346.81;;;13.10;100.00
6034;BME280;3045;43.226;27.858;2023-03-23T12:04:30;90187.41;;;13.14;100.00
6034;BME280;3045;43.226;27.858;2023-03-23T12:07:26;112345.53;;;13.18;100.00
6034;BME280;3045;43.226;27.858;2023-03-23T12:10:05;110380.41;;;13.32;100.00
6034;BME280;3045;43.226;27.858;2023-03-23T12:12:43;105738.00;;;13.30;100.00
6034;BME280;3045;43.226;27.858;2023-03-23T12:15:29;107676.66;;;13.03;100.00
6034;BME280;3045;43.226;27.858;2023-03-23T12:18:03;96753.38;;;12.95;100.00
6034;BME280;3045;43.226;27.858;2023-03-23T12:20:39;96433.19;;;13.01;100.00
6034;BME280;3045;43.226;27.858;2023-03-23T12:23:20;88178.25;;;12.93;100.00
6034;BME280;3045;43.226;27.858;2023-03-23T12:26:07;80587.00;;;12.73;100.00
6034;BME280;3045;43.226;27.858;2023-03-23T12:28:50;79295.31;;;12.89;100.00
6034;BME280;3045;43.226;27.858;2023-03-23T12:31:26;84897.50;;;13.00;100.00
6034;BME280;3045;43.226;27.858;2023-03-23T12:33:59;88499.97;;;12.88;100.00
6034;BME280;3045;43.226;27.858;2023-03-23T12:36:36;94735.53;;;12.71;100.00
6034;BME280;3045;43.226;27.858;2023-03-23T12:39:48;96429.06;;;12.99;100.00
6034;BME280;3045;43.226;27.858;2023-03-23T12:42:25;95451.22;;;13.06;100.00
6034;BME280;3045;43.226;27.858;2023-03-23T12:45:05;91479.31;;;12.97;100.00
6034;BME280;3045;43.226;27.858;2023-03-23T12:47:41;83221.06;;;12.77;100.00
6034;BME280;3045;43.226;27.858;2023-03-23T12:50:15;69438.34;;;12.72;100.00
6034;BME280;3045;43.226;27.858;2023-03-23T12:52:50;65835.41;;;12.69;100.00
6034;BME280;3045;43.226;27.858;2023-03-23T12:55:23;67784.47;;;12.57;100.00
6034;BME280;3045;43.226;27.858;2023-03-23T12:57:57;74325.97;;;12.52;100.00
6034;BME280;3045;43.226;27.858;2023-03-23T13:00:29;59928.84;;;12.44;100.00
6034;BME280;3045;43.226;27.858;2023-03-23T13:03:01;57945.09;;;12.17;100.00
6034;BME280;3045;43.226;27.858;2023-03-23T13:05:38;57318.56;;;12.43;100.00
6034;BME280;3045;43.226;27.858;2023-03-23T13:08:12;61232.13;;;12.42;100.00
6034;BME280;3045;43.226;27.858;2023-03-23T13:10:45;64161.03;;;12.32;100.00
6034;BME280;3045;43.226;27.858;2023-03-23T13:13:18;58629.03;;;12.49;100.00
6034;BME280;3045;43.226;27.858;2023-03-23T13:15:55;54731.28;;;12.64;100.00